Main page
METAR-TAF:

METAR-TAF

Airports :

Arvidsjaur Airport

Arvidsjaur, Sweden

latitude: 65-35-25N, longitude: 019-16-55E, elevation: 379 m

Current weather observation

The report was made 16 minutes ago, at 17:50 UTC
Wind 7 kt from the South/Southwest
Temperature 20°C
Humidity 68%
Pressure 1013 hPa
Visibility 10 km or more

METAR: ESNX 231750Z AUTO 20007KT 9999 BKN053/// OVC082/// 20/14 Q1013

Time: 20:06 (18:06 UTC)

Forecast

The report was made 6 hours and 36 minutes ago, at 11:30 UTC
Forecast valid from 23 at 12 UTC to 23 at 15 UTC
Wind 12 kt from the Southeast
Visibility 10 km or more
Scattered clouds at a height of 3500 ft
Probability 40%
from 23 at 12 UTC to 23 at 15 UTC
Scattered clouds at a height of 3500 ft, Cumulonimbus.
rain showers,

TAF: ESNX 231130Z 2312/2315 14012KT 9999 SCT035 PROB40 2312/2315 SHRA SCT035CB

Weather observations and forecasts of more than 4000 airports (METAR and TAF reports).

The available stations are represented by yellow and red dots on the map.

Hover mouse over dot to see the name of the station.

Then click to see weather observations and forecasts.

To change the map : click on the green buttons with a black cross to zoom in, on the green button with a dash to zoom out, or on the green arrows for adjacent maps.


METAR-TAF: